Time;durP1;ratioP1;P1;durP2;ratioP2;P2;SDS_P1;SDS_P2;PMS_P1;PMS_P2;Temp;Humidity;BMP_temperature;BMP_pressure;BME280_temperature;BME280_humidity;BME280_pressure;Samples;Min_cycle;Max_cycle;Signal;HPM_P1;HPM_P2
2023/12/04 00:00:43;;;;;;;;;;;12.00;99.90;;;;;;5092184;28;19908;-75
2023/12/04 00:03:09;;;;;;;;;;;11.90;99.90;;;;;;5102696;28;19915;-73
2023/12/04 00:05:35;;;;;;;;;;;11.90;99.90;;;;;;5112129;28;19939;-76
2023/12/04 00:08:00;;;;;;;;;;;11.80;99.90;;;;;;5112405;28;20347;-75
2023/12/04 00:10:28;;;;;;;;;;;11.90;99.90;;;;;;5112260;28;19923;-77
2023/12/04 00:12:54;;;;;;;;;;;11.90;99.90;;;;;;5094061;28;19930;-73
2023/12/04 00:15:21;;;;;;;;;;;12.00;99.90;;;;;;5112107;28;19908;-76
2023/12/04 00:17:47;;;;;;;;;;;11.90;99.90;;;;;;5112151;28;19938;-76
2023/12/04 00:20:13;;;;;;;;;;;11.90;99.90;;;;;;5109319;28;20297;-75
2023/12/04 00:22:38;;;;;;;;;;;12.00;99.90;;;;;;5092012;28;19950;-75
2023/12/04 00:25:06;;;;;;;;;;;11.90;99.90;;;;;;5091580;28;19995;-75
2023/12/04 00:27:32;;;;;;;;;;;11.90;99.90;;;;;;5091304;28;20364;-75
2023/12/04 00:29:58;;;;;;;;;;;11.90;99.90;;;;;;5091755;28;19962;-76
2023/12/04 00:32:24;;;;;;;;;;;11.90;99.90;;;;;;5095737;28;19957;-75
2023/12/04 00:34:50;;;;;;;;;;;11.90;99.90;;;;;;5073866;28;19908;-76
2023/12/04 00:37:15;;;;;;;;;;;11.90;99.90;;;;;;5091856;28;20244;-75
2023/12/04 00:39:41;;;;;;;;;;;11.80;99.90;;;;;;5091520;28;19956;-76
2023/12/04 00:42:07;;;;;;;;;;;11.80;99.90;;;;;;5095075;28;19908;-76
2023/12/04 00:44:33;;;;;;;;;;;11.80;99.90;;;;;;5095536;28;19930;-75
2023/12/04 00:47:00;;;;;;;;;;;11.80;99.90;;;;;;5095609;28;19951;-75
2023/12/04 00:49:25;;;;;;;;;;;11.80;99.90;;;;;;5095131;28;19920;-75
2023/12/04 00:51:51;;;;;;;;;;;11.80;99.90;;;;;;5095036;28;20356;-75
2023/12/04 00:54:17;;;;;;;;;;;11.70;99.90;;;;;;5060476;28;19908;-74
2023/12/04 00:56:45;;;;;;;;;;;11.70;99.90;;;;;;5094470;28;19908;-74
2023/12/04 00:59:10;;;;;;;;;;;11.60;99.90;;;;;;5095005;28;19961;-76
2023/12/04 01:01:37;;;;;;;;;;;11.70;99.90;;;;;;5094925;28;20304;-76
2023/12/04 01:04:03;;;;;;;;;;;11.70;99.90;;;;;;5113595;28;19963;-76
2023/12/04 01:06:30;;;;;;;;;;;11.60;99.90;;;;;;5114643;28;19908;-75
2023/12/04 01:08:56;;;;;;;;;;;11.70;99.90;;;;;;5115159;28;20348;-76
2023/12/04 01:11:22;;;;;;;;;;;11.70;99.90;;;;;;5117387;28;19908;-76
2023/12/04 01:13:48;;;;;;;;;;;11.70;99.90;;;;;;5118856;28;20367;-76
2023/12/04 01:16:14;;;;;;;;;;;11.80;99.90;;;;;;5094483;28;19912;-75
2023/12/04 01:18:41;;;;;;;;;;;11.80;99.90;;;;;;5093649;28;19954;-75
2023/12/04 01:21:08;;;;;;;;;;;11.80;99.90;;;;;;5093903;28;19994;-72
2023/12/04 01:23:35;;;;;;;;;;;11.90;99.90;;;;;;5093621;28;20329;-73
2023/12/04 01:26:02;;;;;;;;;;;11.90;99.90;;;;;;5094065;28;19915;-75
2023/12/04 01:28:28;;;;;;;;;;;11.90;99.90;;;;;;5093360;28;19916;-76
2023/12/04 01:30:54;;;;;;;;;;;11.90;99.90;;;;;;5093976;28;19912;-75
2023/12/04 01:33:21;;;;;;;;;;;11.90;99.90;;;;;;5088330;28;19957;-76
2023/12/04 01:35:47;;;;;;;;;;;11.90;99.90;;;;;;5114023;28;19955;-76
2023/12/04 01:38:14;;;;;;;;;;;11.90;99.90;;;;;;5114042;28;19912;-75
2023/12/04 01:40:41;;;;;;;;;;;11.90;99.90;;;;;;5113940;28;19976;-76
2023/12/04 01:43:07;;;;;;;;;;;11.90;99.90;;;;;;5113590;28;20068;-74
2023/12/04 01:45:35;;;;;;;;;;;11.90;99.90;;;;;;5129540;27;20393;-75
2023/12/04 01:48:02;;;;;;;;;;;11.90;99.90;;;;;;5113705;28;19941;-75
2023/12/04 01:50:27;;;;;;;;;;;11.80;99.90;;;;;;5108890;28;19908;-75
2023/12/04 01:52:53;;;;;;;;;;;11.90;99.90;;;;;;5093457;28;19942;-75
2023/12/04 01:55:19;;;;;;;;;;;11.90;99.90;;;;;;5091674;28;19962;-75
2023/12/04 01:57:45;;;;;;;;;;;11.90;99.90;;;;;;5093110;28;19908;-75
2023/12/04 02:00:12;;;;;;;;;;;11.80;99.90;;;;;;5093134;28;19924;-76
2023/12/04 02:02:39;;;;;;;;;;;11.90;99.90;;;;;;5081894;28;20255;-74
2023/12/04 02:05:07;;;;;;;;;;;11.90;99.90;;;;;;5094134;28;19950;-74
2023/12/04 02:07:33;;;;;;;;;;;11.90;99.90;;;;;;5094670;28;20381;-75
2023/12/04 02:09:59;;;;;;;;;;;11.90;99.90;;;;;;5113412;28;19930;-74
2023/12/04 02:12:25;;;;;;;;;;;11.80;99.90;;;;;;5113171;28;19987;-75
2023/12/04 02:14:51;;;;;;;;;;;11.80;99.90;;;;;;5113219;28;20402;-75
2023/12/04 02:17:19;;;;;;;;;;;11.80;99.90;;;;;;5095092;28;19907;-74
2023/12/04 02:19:45;;;;;;;;;;;11.80;99.90;;;;;;5113342;28;19961;-75
2023/12/04 02:22:11;;;;;;;;;;;11.80;99.90;;;;;;5093528;28;19912;-72
2023/12/04 02:24:37;;;;;;;;;;;11.80;99.90;;;;;;5092803;28;19908;-75
2023/12/04 02:27:11;;;;;;;;;;;11.80;99.90;;;;;;5092388;28;19916;-76
2023/12/04 02:29:47;;;;;;;;;;;11.80;99.90;;;;;;5092775;28;19922;-74
2023/12/04 02:32:15;;;;;;;;;;;11.80;99.90;;;;;;5092698;28;19938;-74
2023/12/04 02:34:42;;;;;;;;;;;11.80;99.90;;;;;;5092363;28;20430;-76
2023/12/04 02:37:09;;;;;;;;;;;11.80;99.90;;;;;;5092701;28;20325;-75
2023/12/04 02:39:36;;;;;;;;;;;11.80;99.90;;;;;;5092291;28;20402;-73
2023/12/04 02:42:02;;;;;;;;;;;11.90;99.90;;;;;;5092211;28;20014;-76
2023/12/04 02:44:28;;;;;;;;;;;11.90;99.90;;;;;;5092220;28;19912;-76
2023/12/04 02:46:54;;;;;;;;;;;11.80;99.90;;;;;;5074182;28;20058;-75
2023/12/04 02:49:20;;;;;;;;;;;11.80;99.90;;;;;;5092258;28;19916;-70
2023/12/04 02:51:46;;;;;;;;;;;11.80;99.90;;;;;;5085890;28;19908;-76
2023/12/04 02:54:12;;;;;;;;;;;11.70;99.90;;;;;;5092103;28;19973;-76
2023/12/04 02:56:37;;;;;;;;;;;11.70;99.90;;;;;;5091795;28;19908;-75
2023/12/04 02:59:03;;;;;;;;;;;11.70;99.90;;;;;;5091840;28;20051;-74
2023/12/04 03:01:29;;;;;;;;;;;11.70;99.90;;;;;;5073868;28;19974;-74
2023/12/04 03:03:55;;;;;;;;;;;11.70;99.90;;;;;;5073005;28;19919;-75
2023/12/04 03:06:21;;;;;;;;;;;11.60;99.90;;;;;;5092339;28;19922;-76
2023/12/04 03:08:46;;;;;;;;;;;11.50;99.90;;;;;;5091936;28;19916;-75
2023/12/04 03:11:12;;;;;;;;;;;11.60;99.90;;;;;;5091557;28;20003;-74
2023/12/04 03:13:38;;;;;;;;;;;11.50;99.90;;;;;;5091405;28;19919;-75
2023/12/04 03:16:04;;;;;;;;;;;11.40;99.90;;;;;;5091144;28;19916;-75
2023/12/04 03:18:31;;;;;;;;;;;11.30;99.90;;;;;;5091959;28;20213;-75
2023/12/04 03:20:57;;;;;;;;;;;11.20;99.90;;;;;;5078178;28;20267;-74
2023/12/04 03:23:23;;;;;;;;;;;11.20;99.90;;;;;;5091596;28;20356;-74
2023/12/04 03:25:49;;;;;;;;;;;11.30;99.90;;;;;;5091703;28;19934;-75
2023/12/04 03:28:16;;;;;;;;;;;11.30;99.90;;;;;;5091277;28;20054;-75
2023/12/04 03:30:45;;;;;;;;;;;11.30;99.90;;;;;;5091465;28;19999;-75
2023/12/04 03:33:13;;;;;;;;;;;11.40;99.90;;;;;;5091165;28;19938;-75
2023/12/04 03:35:39;;;;;;;;;;;11.40;99.90;;;;;;5091423;28;19908;-75
2023/12/04 03:38:05;;;;;;;;;;;11.40;99.90;;;;;;5091154;28;20347;-74
2023/12/04 03:40:31;;;;;;;;;;;11.40;99.90;;;;;;5055807;28;20059;-74
2023/12/04 03:42:57;;;;;;;;;;;11.50;99.90;;;;;;5091033;28;20047;-74
2023/12/04 03:45:23;;;;;;;;;;;11.50;99.90;;;;;;5091099;28;19961;-75
2023/12/04 03:47:49;;;;;;;;;;;11.50;99.90;;;;;;5072343;28;19917;-71
2023/12/04 03:50:15;;;;;;;;;;;11.60;99.90;;;;;;5090993;28;19927;-75
2023/12/04 03:52:41;;;;;;;;;;;11.50;99.90;;;;;;5072684;28;19927;-77
2023/12/04 03:55:08;;;;;;;;;;;11.50;99.90;;;;;;5072938;28;19919;-74
2023/12/04 03:57:34;;;;;;;;;;;11.50;99.90;;;;;;5091649;28;19931;-75
2023/12/04 04:00:00;;;;;;;;;;;11.60;99.90;;;;;;5091446;28;20284;-74
2023/12/04 04:02:26;;;;;;;;;;;11.60;99.90;;;;;;5073242;28;19912;-74
2023/12/04 04:04:52;;;;;;;;;;;11.60;99.90;;;;;;5098554;28;19984;-74
2023/12/04 04:07:18;;;;;;;;;;;11.60;99.90;;;;;;5092612;28;19955;-75
2023/12/04 04:09:44;;;;;;;;;;;11.60;99.90;;;;;;5091906;28;19973;-75
2023/12/04 04:12:10;;;;;;;;;;;11.60;99.90;;;;;;5091742;28;20359;-74
2023/12/04 04:14:35;;;;;;;;;;;11.70;99.90;;;;;;5091908;28;19908;-74
2023/12/04 04:17:01;;;;;;;;;;;11.80;99.90;;;;;;5096124;28;19908;-74
2023/12/04 04:19:27;;;;;;;;;;;11.70;99.90;;;;;;5078183;28;19913;-73
2023/12/04 04:21:54;;;;;;;;;;;11.70;99.90;;;;;;5080591;28;19920;-75
2023/12/04 04:24:19;;;;;;;;;;;11.60;99.90;;;;;;5074684;28;19912;-74
2023/12/04 04:26:45;;;;;;;;;;;11.60;99.90;;;;;;5074754;28;19918;-76
2023/12/04 04:29:11;;;;;;;;;;;11.60;99.90;;;;;;5056392;28;20281;-78
2023/12/04 04:31:37;;;;;;;;;;;11.60;99.90;;;;;;5075945;28;19920;-74
2023/12/04 04:34:04;;;;;;;;;;;11.50;99.90;;;;;;5075976;28;20320;-74
2023/12/04 04:36:30;;;;;;;;;;;11.50;99.90;;;;;;5076475;28;20284;-74
2023/12/04 04:38:56;;;;;;;;;;;11.50;99.90;;;;;;5076615;28;19908;-75
2023/12/04 04:41:21;;;;;;;;;;;11.60;99.90;;;;;;5058466;28;19920;-75
2023/12/04 04:43:48;;;;;;;;;;;11.60;99.90;;;;;;5075743;28;20448;-73
2023/12/04 04:46:15;;;;;;;;;;;11.60;99.90;;;;;;5075409;28;20015;-76
2023/12/04 04:48:41;;;;;;;;;;;11.60;99.90;;;;;;5075136;28;20023;-74
2023/12/04 04:51:08;;;;;;;;;;;11.60;99.90;;;;;;5042473;28;19979;-73
2023/12/04 04:53:34;;;;;;;;;;;11.60;99.90;;;;;;5075019;28;19915;-75
2023/12/04 04:56:01;;;;;;;;;;;11.60;99.90;;;;;;5075268;28;19913;-75
2023/12/04 04:58:27;;;;;;;;;;;11.60;99.90;;;;;;5074954;28;20232;-75
2023/12/04 05:00:52;;;;;;;;;;;11.50;99.90;;;;;;5075637;28;19909;-76
2023/12/04 05:03:18;;;;;;;;;;;11.40;99.90;;;;;;5088705;28;19999;-75
2023/12/04 05:05:44;;;;;;;;;;;11.40;99.90;;;;;;5096044;28;19912;-74
2023/12/04 05:08:10;;;;;;;;;;;11.30;99.90;;;;;;5096384;28;19963;-75
2023/12/04 05:10:37;;;;;;;;;;;11.30;99.90;;;;;;5095803;28;19943;-74
2023/12/04 05:13:03;;;;;;;;;;;11.30;99.90;;;;;;5095672;28;20221;-75
2023/12/04 05:15:29;;;;;;;;;;;11.30;99.90;;;;;;5077517;28;19919;-75
2023/12/04 05:17:56;;;;;;;;;;;11.30;99.90;;;;;;5096573;28;19912;-74
2023/12/04 05:20:22;;;;;;;;;;;11.20;99.90;;;;;;5096689;28;20372;-75
2023/12/04 05:22:49;;;;;;;;;;;11.20;99.90;;;;;;5078622;28;19915;-75
2023/12/04 05:25:15;;;;;;;;;;;11.20;99.90;;;;;;5098544;28;19919;-74
2023/12/04 05:27:41;;;;;;;;;;;11.20;99.90;;;;;;5105034;28;19916;-75
2023/12/04 05:30:07;;;;;;;;;;;11.20;99.90;;;;;;5096856;28;19908;-75
2023/12/04 05:32:33;;;;;;;;;;;11.10;99.90;;;;;;5096222;28;19908;-74
2023/12/04 05:34:59;;;;;;;;;;;11.00;99.90;;;;;;5096711;28;19999;-75
2023/12/04 05:37:25;;;;;;;;;;;11.10;99.90;;;;;;5096024;28;19918;-73
2023/12/04 05:39:50;;;;;;;;;;;11.00;99.90;;;;;;5096677;28;19956;-74
2023/12/04 05:42:16;;;;;;;;;;;10.90;99.90;;;;;;5088978;28;19943;-73
2023/12/04 05:44:42;;;;;;;;;;;10.90;99.90;;;;;;5075431;28;19908;-73
2023/12/04 05:47:08;;;;;;;;;;;10.90;99.90;;;;;;5075544;28;19909;-71
2023/12/04 05:49:34;;;;;;;;;;;11.00;99.90;;;;;;5075872;28;19916;-73
2023/12/04 05:52:01;;;;;;;;;;;11.10;99.90;;;;;;5075671;28;20333;-74
2023/12/04 05:54:30;;;;;;;;;;;11.10;99.90;;;;;;5075498;28;19908;-73
2023/12/04 05:56:55;;;;;;;;;;;11.00;99.90;;;;;;5075166;28;19908;-68
2023/12/04 05:59:21;;;;;;;;;;;11.00;99.90;;;;;;5087536;28;20011;-73
2023/12/04 06:01:48;;;;;;;;;;;10.90;99.90;;;;;;5095567;28;19934;-73
2023/12/04 06:04:14;;;;;;;;;;;10.90;99.90;;;;;;5116104;28;20320;-74
2023/12/04 06:06:39;;;;;;;;;;;11.00;99.90;;;;;;5097260;28;19918;-74
2023/12/04 06:09:06;;;;;;;;;;;11.00;99.90;;;;;;5115234;28;20363;-73
2023/12/04 06:11:31;;;;;;;;;;;11.10;99.90;;;;;;5110797;27;19920;-73
2023/12/04 06:13:58;;;;;;;;;;;11.20;99.90;;;;;;5094978;28;19919;-74
2023/12/04 06:16:24;;;;;;;;;;;11.20;99.90;;;;;;5076518;28;19939;-74
2023/12/04 06:18:54;;;;;;;;;;;11.20;99.90;;;;;;5094923;28;19912;-74
2023/12/04 06:21:21;;;;;;;;;;;11.20;99.90;;;;;;5094586;28;20380;-74
2023/12/04 06:23:47;;;;;;;;;;;11.30;99.90;;;;;;5095039;28;19996;-74
2023/12/04 06:26:13;;;;;;;;;;;11.50;99.90;;;;;;5094856;28;19909;-74
2023/12/04 06:28:39;;;;;;;;;;;11.80;99.90;;;;;;5094059;28;19923;-72
2023/12/04 06:31:05;;;;;;;;;;;12.10;99.90;;;;;;5094702;28;19912;-75
2023/12/04 06:33:31;;;;;;;;;;;12.30;99.90;;;;;;5108747;28;20363;-73
2023/12/04 06:35:57;;;;;;;;;;;12.40;99.90;;;;;;5097556;28;19935;-73
2023/12/04 06:38:24;;;;;;;;;;;12.40;99.90;;;;;;5092907;28;20364;-74
2023/12/04 06:40:50;;;;;;;;;;;12.90;99.90;;;;;;5075989;28;19968;-76
2023/12/04 06:43:18;;;;;;;;;;;13.40;99.90;;;;;;5076049;28;19908;-75
2023/12/04 06:45:47;;;;;;;;;;;14.00;99.90;;;;;;5093955;28;20402;-80
2023/12/04 06:48:13;;;;;;;;;;;14.70;99.90;;;;;;5075403;28;19954;-72
2023/12/04 06:50:40;;;;;;;;;;;15.40;99.90;;;;;;5093679;28;20399;-73
2023/12/04 06:53:06;;;;;;;;;;;16.30;99.90;;;;;;5093692;28;20377;-75
2023/12/04 06:55:31;;;;;;;;;;;17.00;99.90;;;;;;5074956;28;19955;-73
2023/12/04 06:57:59;;;;;;;;;;;17.60;99.90;;;;;;5073525;28;19942;-73
2023/12/04 07:00:25;;;;;;;;;;;17.60;99.90;;;;;;5075361;28;19927;-73
2023/12/04 07:02:51;;;;;;;;;;;17.80;99.90;;;;;;5084094;28;19908;-72
2023/12/04 07:05:18;;;;;;;;;;;17.80;99.90;;;;;;5113722;28;19925;-73
2023/12/04 07:07:44;;;;;;;;;;;18.10;99.90;;;;;;5095128;28;19923;-72
2023/12/04 07:10:14;;;;;;;;;;;18.40;99.90;;;;;;5113453;28;19995;-71
2023/12/04 07:12:41;;;;;;;;;;;18.80;99.90;;;;;;5113683;28;19999;-74
2023/12/04 07:15:08;;;;;;;;;;;19.40;99.90;;;;;;5113415;28;20272;-74
2023/12/04 07:17:36;;;;;;;;;;;20.30;99.90;;;;;;5112969;28;19912;-72
2023/12/04 07:20:02;;;;;;;;;;;21.00;99.90;;;;;;5111937;28;20006;-71
2023/12/04 07:22:27;;;;;;;;;;;21.70;99.90;;;;;;5091944;28;20354;-72
2023/12/04 07:24:53;;;;;;;;;;;21.80;99.90;;;;;;5072735;28;19936;-68
2023/12/04 07:27:19;;;;;;;;;;;22.40;99.90;;;;;;5091647;28;19947;-73
2023/12/04 07:29:45;;;;;;;;;;;22.50;99.90;;;;;;5091952;28;19924;-71
2023/12/04 07:32:11;;;;;;;;;;;22.30;99.90;;;;;;5095655;28;20105;-72
2023/12/04 07:34:37;;;;;;;;;;;22.40;99.90;;;;;;5113196;28;19908;-73
2023/12/04 07:37:02;;;;;;;;;;;22.20;99.90;;;;;;5113139;28;19907;-74
2023/12/04 07:39:29;;;;;;;;;;;21.50;99.90;;;;;;5112794;28;20279;-73
2023/12/04 07:41:56;;;;;;;;;;;20.80;99.90;;;;;;5112784;28;19908;-74
2023/12/04 07:44:22;;;;;;;;;;;20.30;99.90;;;;;;5112348;28;19908;-73
2023/12/04 07:46:48;;;;;;;;;;;19.70;99.90;;;;;;5112718;28;20064;-74
2023/12/04 07:49:14;;;;;;;;;;;19.30;99.90;;;;;;5127658;27;20251;-71
2023/12/04 07:51:40;;;;;;;;;;;18.50;99.90;;;;;;5097301;28;20008;-72
2023/12/04 07:54:06;;;;;;;;;;;18.20;99.90;;;;;;5091811;28;20310;-73
2023/12/04 07:56:32;;;;;;;;;;;17.80;99.90;;;;;;5073924;28;19908;-73
2023/12/04 07:58:59;;;;;;;;;;;17.50;99.90;;;;;;5091999;28;19920;-71
2023/12/04 08:01:24;;;;;;;;;;;17.30;99.90;;;;;;5074254;28;19920;-75
2023/12/04 08:03:50;;;;;;;;;;;17.20;99.90;;;;;;5109302;28;19953;-75
2023/12/04 08:06:18;;;;;;;;;;;16.90;99.90;;;;;;5112638;28;19912;-73
2023/12/04 08:08:44;;;;;;;;;;;16.80;99.90;;;;;;5112603;28;19922;-73
2023/12/04 08:11:11;;;;;;;;;;;16.70;99.90;;;;;;5113358;28;19908;-74
2023/12/04 08:13:40;;;;;;;;;;;16.70;99.90;;;;;;5112282;28;19908;-73
2023/12/04 08:16:13;;;;;;;;;;;16.70;99.90;;;;;;5091275;28;19919;-73
2023/12/04 08:18:38;;;;;;;;;;;16.60;99.90;;;;;;5073832;28;20295;-71
2023/12/04 08:21:04;;;;;;;;;;;16.60;99.90;;;;;;5088110;28;19912;-73
2023/12/04 08:23:30;;;;;;;;;;;16.70;99.90;;;;;;5087544;28;19955;-74
2023/12/04 08:25:57;;;;;;;;;;;16.70;99.90;;;;;;5091800;28;19920;-71
2023/12/04 08:28:23;;;;;;;;;;;16.70;99.90;;;;;;5073248;28;19915;-73
2023/12/04 08:30:48;;;;;;;;;;;16.70;99.90;;;;;;5090915;28;20198;-73
2023/12/04 08:33:14;;;;;;;;;;;16.70;99.90;;;;;;5101643;28;19908;-74
2023/12/04 08:35:40;;;;;;;;;;;16.80;99.90;;;;;;5072621;28;19912;-75
2023/12/04 08:38:07;;;;;;;;;;;16.80;99.90;;;;;;5092119;28;19909;-74
2023/12/04 08:40:33;;;;;;;;;;;16.60;99.90;;;;;;5091677;28;19912;-74
2023/12/04 08:42:59;;;;;;;;;;;16.30;99.90;;;;;;5091586;28;19909;-75
2023/12/04 08:45:25;;;;;;;;;;;16.40;99.90;;;;;;5092170;28;19947;-74
2023/12/04 08:47:51;;;;;;;;;;;16.50;99.90;;;;;;5091928;28;20331;-74
2023/12/04 08:50:17;;;;;;;;;;;16.50;99.90;;;;;;5072977;28;19919;-74
2023/12/04 08:52:42;;;;;;;;;;;16.60;99.90;;;;;;5072298;28;19931;-74
2023/12/04 08:55:08;;;;;;;;;;;16.60;99.90;;;;;;5090290;28;19908;-74
2023/12/04 08:57:34;;;;;;;;;;;16.60;99.90;;;;;;5090206;28;19909;-73
2023/12/04 09:00:00;;;;;;;;;;;16.70;99.90;;;;;;5073183;28;20007;-76
2023/12/04 09:02:26;;;;;;;;;;;16.70;99.90;;;;;;5078243;28;19966;-74
2023/12/04 09:04:52;;;;;;;;;;;16.80;99.90;;;;;;5094207;28;19915;-75
2023/12/04 09:07:17;;;;;;;;;;;17.00;99.90;;;;;;5110291;28;19908;-74
2023/12/04 09:09:43;;;;;;;;;;;17.10;99.90;;;;;;5094338;28;19924;-70
2023/12/04 09:12:10;;;;;;;;;;;16.80;99.90;;;;;;5094433;28;20254;-77
2023/12/04 09:14:37;;;;;;;;;;;16.80;99.90;;;;;;5094529;28;19962;-76
2023/12/04 09:17:03;;;;;;;;;;;16.90;99.90;;;;;;5095057;28;19952;-77
2023/12/04 09:19:29;;;;;;;;;;;16.90;99.90;;;;;;5102153;28;19929;-76
2023/12/04 09:21:57;;;;;;;;;;;17.00;99.90;;;;;;5074291;28;19912;-73
2023/12/04 09:24:23;;;;;;;;;;;17.10;99.90;;;;;;5074832;28;19909;-74
2023/12/04 09:26:49;;;;;;;;;;;17.30;99.90;;;;;;5056446;28;19908;-68
2023/12/04 09:29:16;;;;;;;;;;;17.30;99.90;;;;;;5074235;28;19979;-73
2023/12/04 09:31:42;;;;;;;;;;;17.20;99.90;;;;;;5074793;28;20359;-73
2023/12/04 09:34:08;;;;;;;;;;;17.40;99.90;;;;;;5094377;28;19955;-74
2023/12/04 09:36:34;;;;;;;;;;;17.40;99.90;;;;;;5095081;28;19915;-75
2023/12/04 09:39:00;;;;;;;;;;;17.30;99.90;;;;;;5110000;28;19908;-73
2023/12/04 09:41:26;;;;;;;;;;;17.50;99.90;;;;;;5094576;28;20360;-74
2023/12/04 09:43:52;;;;;;;;;;;17.50;99.90;;;;;;5094629;28;19976;-73
2023/12/04 09:46:19;;;;;;;;;;;17.30;99.90;;;;;;5076123;28;19908;-75
2023/12/04 09:48:45;;;;;;;;;;;17.20;99.90;;;;;;5094335;28;19935;-76
2023/12/04 09:51:12;;;;;;;;;;;17.40;99.90;;;;;;5083160;28;19981;-73
2023/12/04 09:53:40;;;;;;;;;;;17.50;99.90;;;;;;5073710;28;19916;-74
2023/12/04 09:56:07;;;;;;;;;;;17.50;99.90;;;;;;5074125;28;19934;-74
2023/12/04 09:58:34;;;;;;;;;;;17.50;99.90;;;;;;5078504;28;19920;-76
2023/12/04 10:01:02;;;;;;;;;;;17.70;99.90;;;;;;5073373;28;20386;-76
2023/12/04 10:03:29;;;;;;;;;;;17.90;99.90;;;;;;5093606;28;19999;-75
2023/12/04 10:05:56;;;;;;;;;;;17.80;99.90;;;;;;5094182;28;20415;-75
2023/12/04 10:08:21;;;;;;;;;;;17.60;99.90;;;;;;5093963;28;19977;-75
2023/12/04 10:10:47;;;;;;;;;;;17.50;99.90;;;;;;5094525;28;20272;-75
2023/12/04 10:13:13;;;;;;;;;;;17.60;99.90;;;;;;5093646;28;20414;-75
2023/12/04 10:15:51;;;;;;;;;;;17.50;99.90;;;;;;5093863;28;19962;-74
2023/12/04 10:18:35;;;;;;;;;;;17.30;99.90;;;;;;5075090;28;19955;-74
2023/12/04 10:21:07;;;;;;;;;;;17.30;99.90;;;;;;5093790;28;19931;-78
2023/12/04 10:23:37;;;;;;;;;;;17.30;99.90;;;;;;5094632;28;19908;-76
2023/12/04 10:26:04;;;;;;;;;;;17.40;99.90;;;;;;5075028;28;19920;-76
2023/12/04 10:28:30;;;;;;;;;;;17.40;99.90;;;;;;5075403;28;19916;-76
2023/12/04 10:30:57;;;;;;;;;;;17.30;99.90;;;;;;5093720;28;19912;-72
2023/12/04 10:33:25;;;;;;;;;;;17.30;99.90;;;;;;5093203;28;19916;-76
2023/12/04 10:35:51;;;;;;;;;;;17.50;99.90;;;;;;5093374;28;19984;-76
2023/12/04 10:38:18;;;;;;;;;;;17.80;99.90;;;;;;5093633;28;19909;-75
2023/12/04 10:40:50;;;;;;;;;;;18.00;99.90;;;;;;5093205;28;19908;-76
2023/12/04 10:43:23;;;;;;;;;;;18.00;99.90;;;;;;5092938;28;19908;-77
2023/12/04 10:45:49;;;;;;;;;;;18.00;99.90;;;;;;5093296;28;19908;-76
2023/12/04 10:48:18;;;;;;;;;;;17.90;99.90;;;;;;5093636;28;20245;-69
2023/12/04 10:50:44;;;;;;;;;;;17.70;99.90;;;;;;5092937;28;19912;-75
2023/12/04 10:53:12;;;;;;;;;;;17.90;99.90;;;;;;5074806;28;19916;-74
2023/12/04 10:55:41;;;;;;;;;;;18.00;99.90;;;;;;5093244;28;19908;-75
2023/12/04 10:58:12;;;;;;;;;;;18.00;99.90;;;;;;5092237;28;19912;-76
2023/12/04 11:00:48;;;;;;;;;;;18.30;99.90;;;;;;5092796;28;19912;-75
2023/12/04 11:03:35;;;;;;;;;;;18.60;99.90;;;;;;5074338;28;19969;-75
2023/12/04 11:06:09;;;;;;;;;;;18.70;99.90;;;;;;5092798;28;19908;-74
2023/12/04 11:08:36;;;;;;;;;;;18.70;99.90;;;;;;5074643;28;19916;-75
2023/12/04 11:11:12;;;;;;;;;;;18.50;99.90;;;;;;5092051;28;20451;-77
2023/12/04 11:13:49;;;;;;;;;;;18.40;99.90;;;;;;5093047;28;19916;-75
2023/12/04 11:16:35;;;;;;;;;;;18.70;99.90;;;;;;5054277;28;19912;-76
2023/12/04 11:19:21;;;;;;;;;;;18.70;99.90;;;;;;5053742;28;19932;-76
2023/12/04 11:21:50;;;;;;;;;;;18.90;99.90;;;;;;5087588;28;20308;-74
2023/12/04 11:24:17;;;;;;;;;;;18.90;99.90;;;;;;5092899;28;20375;-75
2023/12/04 11:26:43;;;;;;;;;;;18.80;99.90;;;;;;5092880;28;20003;-77
2023/12/04 11:29:09;;;;;;;;;;;18.50;99.90;;;;;;5092921;28;20386;-76
2023/12/04 11:31:37;;;;;;;;;;;18.00;99.90;;;;;;5093174;28;19914;-77
2023/12/04 11:34:21;;;;;;;;;;;17.90;99.90;;;;;;5052685;28;19913;-75
2023/12/04 11:36:48;;;;;;;;;;;17.80;99.90;;;;;;5052411;28;20007;-78
2023/12/04 11:39:14;;;;;;;;;;;17.60;99.90;;;;;;5052606;28;20007;-77
2023/12/04 11:41:41;;;;;;;;;;;17.30;99.90;;;;;;5050936;28;20284;-78
2023/12/04 11:44:27;;;;;;;;;;;17.30;99.90;;;;;;5052161;28;19908;-76
2023/12/04 11:46:56;;;;;;;;;;;17.50;99.90;;;;;;5030755;28;19916;-77
2023/12/04 11:49:35;;;;;;;;;;;17.90;99.90;;;;;;5029742;28;19964;-77
2023/12/04 11:52:12;;;;;;;;;;;18.20;99.90;;;;;;5066394;28;19914;-76
2023/12/04 11:55:03;;;;;;;;;;;18.40;99.90;;;;;;5052600;28;19991;-77
2023/12/04 11:57:34;;;;;;;;;;;18.50;99.90;;;;;;5069972;28;19916;-76
2023/12/04 12:00:35;;;;;;;;;;;18.70;99.90;;;;;;5086985;28;19986;-77
2023/12/04 12:03:02;;;;;;;;;;;18.90;99.90;;;;;;5019355;28;19914;-75
2023/12/04 12:05:30;;;;;;;;;;;19.00;99.90;;;;;;5010054;28;19918;-75
2023/12/04 12:07:56;;;;;;;;;;;19.10;99.90;;;;;;5010448;28;19917;-75
2023/12/04 12:10:22;;;;;;;;;;;19.20;99.90;;;;;;5010744;28;19937;-74
2023/12/04 12:12:48;;;;;;;;;;;19.40;99.90;;;;;;5010114;28;19933;-74
2023/12/04 12:15:14;;;;;;;;;;;19.40;99.90;;;;;;5009579;28;19921;-75
2023/12/04 12:17:40;;;;;;;;;;;19.50;99.90;;;;;;5010115;28;19914;-74
2023/12/04 12:20:07;;;;;;;;;;;19.50;99.90;;;;;;5010257;28;19913;-74
2023/12/04 12:22:36;;;;;;;;;;;19.40;99.90;;;;;;5029572;28;20008;-76
2023/12/04 12:25:12;;;;;;;;;;;19.40;99.90;;;;;;5029664;28;19936;-74
2023/12/04 12:27:38;;;;;;;;;;;19.40;99.90;;;;;;5029576;28;20000;-71
2023/12/04 12:30:04;;;;;;;;;;;19.40;99.90;;;;;;5029951;28;19913;-76
2023/12/04 12:32:33;;;;;;;;;;;19.40;99.90;;;;;;5029389;28;19916;-74
2023/12/04 12:34:59;;;;;;;;;;;19.40;99.90;;;;;;5030131;28;19946;-76
2023/12/04 12:37:25;;;;;;;;;;;19.20;99.90;;;;;;5075089;28;20051;-76
2023/12/04 12:39:53;;;;;;;;;;;19.10;99.90;;;;;;5096060;28;19908;-74
2023/12/04 12:42:26;;;;;;;;;;;19.10;99.90;;;;;;5095901;28;20360;-75
2023/12/04 12:44:58;;;;;;;;;;;19.20;99.90;;;;;;5095811;28;19914;-74
2023/12/04 12:47:24;;;;;;;;;;;19.10;99.90;;;;;;5096218;28;20041;-74
2023/12/04 12:50:10;;;;;;;;;;;19.20;99.90;;;;;;5076844;28;20301;-75
2023/12/04 12:52:37;;;;;;;;;;;19.20;99.90;;;;;;5057889;28;20007;-74
2023/12/04 12:55:04;;;;;;;;;;;19.30;99.90;;;;;;5075590;28;19909;-74
2023/12/04 12:57:30;;;;;;;;;;;19.30;99.90;;;;;;5075839;28;19920;-73
2023/12/04 12:59:56;;;;;;;;;;;19.00;99.90;;;;;;5040415;28;19995;-73
2023/12/04 13:02:22;;;;;;;;;;;19.00;99.90;;;;;;5059861;28;19982;-74
2023/12/04 13:04:48;;;;;;;;;;;19.00;99.90;;;;;;5075005;28;20371;-77
2023/12/04 13:07:15;;;;;;;;;;;18.90;99.90;;;;;;5076249;28;19909;-76
2023/12/04 13:09:40;;;;;;;;;;;18.80;99.90;;;;;;5075645;28;19965;-76
2023/12/04 13:12:07;;;;;;;;;;;18.80;99.90;;;;;;5075724;28;19912;-76
2023/12/04 13:14:37;;;;;;;;;;;18.80;99.90;;;;;;5075541;28;20007;-75
2023/12/04 13:17:12;;;;;;;;;;;18.80;99.90;;;;;;5075675;28;19908;-74
2023/12/04 13:19:38;;;;;;;;;;;18.90;99.90;;;;;;5076955;28;19908;-76
2023/12/04 13:22:07;;;;;;;;;;;19.00;99.90;;;;;;5076101;28;19999;-77
2023/12/04 13:24:32;;;;;;;;;;;18.80;99.90;;;;;;5075708;28;19999;-75
2023/12/04 13:26:58;;;;;;;;;;;18.80;99.90;;;;;;5075754;28;19948;-75
2023/12/04 13:29:24;;;;;;;;;;;18.80;99.90;;;;;;5075698;28;19917;-75
2023/12/04 13:31:50;;;;;;;;;;;18.70;99.90;;;;;;5076329;28;20331;-75
2023/12/04 13:34:16;;;;;;;;;;;18.70;99.90;;;;;;5075724;28;19913;-74
2023/12/04 13:36:42;;;;;;;;;;;18.70;99.90;;;;;;5057704;28;19995;-75
2023/12/04 13:39:16;;;;;;;;;;;18.80;99.90;;;;;;5075655;28;19952;-75
2023/12/04 13:44:33;;;;;;;;;;;18.90;99.90;;;;;;5075592;28;20412;-75
2023/12/04 13:46:58;;;;;;;;;;;18.70;99.90;;;;;;5075096;28;19908;-75
2023/12/04 13:49:24;;;;;;;;;;;18.60;99.90;;;;;;5057072;28;20269;-75
2023/12/04 13:51:50;;;;;;;;;;;18.70;99.90;;;;;;5075128;28;19978;-75
2023/12/04 13:54:27;;;;;;;;;;;18.70;99.90;;;;;;5075383;28;20011;-74
2023/12/04 13:56:53;;;;;;;;;;;18.70;99.90;;;;;;5057363;28;20321;-75
2023/12/04 13:59:21;;;;;;;;;;;18.70;99.90;;;;;;5056533;28;20327;-74
2023/12/04 14:01:49;;;;;;;;;;;18.60;99.90;;;;;;5075139;28;19939;-74
2023/12/04 14:04:15;;;;;;;;;;;18.60;99.90;;;;;;5057377;28;19939;-75
2023/12/04 14:06:41;;;;;;;;;;;18.40;99.90;;;;;;5074995;28;19909;-74
2023/12/04 14:09:11;;;;;;;;;;;18.30;99.90;;;;;;5075302;28;20328;-74
2023/12/04 14:11:37;;;;;;;;;;;18.20;99.90;;;;;;5074542;28;20392;-74
2023/12/04 14:14:03;;;;;;;;;;;18.00;99.90;;;;;;5074649;28;19916;-75
2023/12/04 14:16:30;;;;;;;;;;;18.00;99.90;;;;;;5074990;28;20375;-76
2023/12/04 14:18:56;;;;;;;;;;;18.00;99.90;;;;;;5075087;28;19931;-75